Time;durP1;ratioP1;P1;durP2;ratioP2;P2;SDS_P1;SDS_P2;PMS_P1;PMS_P2;Temp;Humidity;BMP_temperature;BMP_pressure;BME280_temperature;BME280_humidity;BME280_pressure;Samples;Min_cycle;Max_cycle;Signal;HPM_P1;HPM_P2
2022/02/15 00:01:34;;;;;;;4.63;3.90;;;;;;;9.50;57.33;94908.88;5054621;28;20240;-84
2022/02/15 00:04:01;;;;;;;6.50;3.80;;;;;;;9.51;57.67;94907.09;5054199;28;20744;-84
2022/02/15 00:06:27;;;;;;;6.23;4.23;;;;;;;9.52;57.89;94906.91;5054613;28;20201;-84
2022/02/15 00:08:55;;;;;;;4.90;3.23;;;;;;;9.53;58.03;94908.50;5054162;28;20201;-84
2022/02/15 00:11:21;;;;;;;5.00;3.77;;;;;;;9.55;57.81;94911.69;5054081;28;20283;-83
2022/02/15 00:13:48;;;;;;;5.60;4.07;;;;;;;9.51;57.79;94909.66;5054666;28;20208;-84
2022/02/15 00:16:14;;;;;;;4.97;4.00;;;;;;;9.52;57.86;94917.19;5054643;28;20225;-83
2022/02/15 00:18:41;;;;;;;5.07;4.00;;;;;;;9.55;57.84;94921.16;5054409;28;20201;-84
2022/02/15 00:21:07;;;;;;;3.77;3.37;;;;;;;9.55;57.73;94923.72;5053587;28;20662;-84
2022/02/15 00:23:33;;;;;;;6.03;3.67;;;;;;;9.53;57.54;94925.69;5054083;28;20212;-84
2022/02/15 00:26:01;;;;;;;3.90;3.50;;;;;;;9.52;57.77;94922.31;5054162;28;20260;-83
2022/02/15 00:28:28;;;;;;;5.43;4.10;;;;;;;9.50;57.84;94931.19;5054928;28;20205;-83
2022/02/15 00:30:54;;;;;;;4.57;4.10;;;;;;;9.47;57.56;94922.09;5054138;28;20225;-83
2022/02/15 00:33:21;;;;;;;5.70;3.83;;;;;;;9.44;58.00;94931.94;5054171;28;20262;-83
2022/02/15 00:35:47;;;;;;;4.33;3.93;;;;;;;9.43;57.73;94933.72;5054194;28;20255;-84
2022/02/15 00:38:14;;;;;;;4.20;3.50;;;;;;;9.40;57.81;94928.16;5054309;28;20201;-84
2022/02/15 00:40:40;;;;;;;6.77;3.93;;;;;;;9.38;57.53;94930.13;5054241;28;20221;-84
2022/02/15 00:43:08;;;;;;;4.30;3.83;;;;;;;9.34;58.51;94922.00;5054514;28;20205;-83
2022/02/15 00:45:35;;;;;;;5.53;4.13;;;;;;;9.27;59.07;94929.63;5054473;28;20690;-84
2022/02/15 00:48:02;;;;;;;4.47;4.00;;;;;;;9.25;58.65;94925.66;5053545;28;20201;-84
2022/02/15 00:50:28;;;;;;;4.87;4.00;;;;;;;9.21;59.22;94929.59;5054250;28;20221;-84
2022/02/15 00:52:55;;;;;;;5.00;4.07;;;;;;;9.10;59.43;94936.00;5053539;28;20279;-84
2022/02/15 00:55:21;;;;;;;4.77;4.27;;;;;;;9.11;59.41;94935.00;5053969;28;20262;-84
2022/02/15 00:57:47;;;;;;;5.20;4.10;;;;;;;9.07;59.96;94935.56;5054006;28;20225;-83
2022/02/15 01:00:16;;;;;;;5.77;4.23;;;;;;;9.10;59.88;94933.41;5053372;28;20228;-83
2022/02/15 01:02:44;;;;;;;6.23;4.17;;;;;;;9.15;59.12;94932.88;5053173;28;20242;-84
2022/02/15 01:05:11;;;;;;;4.93;4.20;;;;;;;9.15;59.40;94933.69;5060765;28;20596;-84
2022/02/15 01:07:38;;;;;;;6.83;4.40;;;;;;;9.18;60.05;94932.50;5057089;28;20206;-84
2022/02/15 01:10:05;;;;;;;4.40;4.00;;;;;;;9.22;59.25;94938.88;5054669;28;20264;-85
2022/02/15 01:12:31;;;;;;;4.13;3.73;;;;;;;9.21;59.19;94938.09;5055055;28;20221;-84
2022/02/15 01:14:57;;;;;;;4.27;3.87;;;;;;;9.22;59.60;94936.31;5053979;28;20290;-84
2022/02/15 01:17:25;;;;;;;6.50;4.40;;;;;;;9.22;59.85;94946.59;5054275;28;20252;-84
2022/02/15 01:19:52;;;;;;;5.27;4.10;;;;;;;9.18;60.19;94951.28;5054375;28;20225;-83
2022/02/15 01:22:18;;;;;;;4.27;3.50;;;;;;;9.21;59.86;94945.00;5054358;28;20236;-84
2022/02/15 01:24:44;;;;;;;5.10;4.00;;;;;;;9.12;60.11;94946.88;5053843;28;20574;-83
2022/02/15 01:27:11;;;;;;;4.40;3.60;;;;;;;9.14;60.02;94949.25;5054087;28;20209;-83
2022/02/15 01:29:37;;;;;;;4.10;3.70;;;;;;;9.11;60.25;94952.19;5054417;28;20197;-84
2022/02/15 01:32:05;;;;;;;4.53;4.00;;;;;;;9.12;59.69;94956.34;5053342;28;20233;-84
2022/02/15 01:34:33;;;;;;;4.93;3.90;;;;;;;9.10;60.08;94951.41;5054467;28;20198;-83
2022/02/15 01:36:59;;;;;;;4.93;3.50;;;;;;;9.08;60.15;94960.25;5054164;28;20224;-84
2022/02/15 01:39:25;;;;;;;5.47;3.57;;;;;;;8.99;60.84;94957.81;5053547;28;20205;-83
2022/02/15 01:41:53;;;;;;;4.23;3.77;;;;;;;8.99;60.61;94959.59;5053674;28;20705;-83
2022/02/15 01:44:20;;;;;;;4.10;3.70;;;;;;;9.05;60.05;94963.97;5053737;28;20205;-83
2022/02/15 01:46:46;;;;;;;5.37;3.40;;;;;;;9.05;60.45;94956.28;5053427;28;20201;-83
2022/02/15 01:49:12;;;;;;;4.60;3.50;;;;;;;9.06;60.65;94965.56;5053842;28;20197;-83
2022/02/15 01:51:40;;;;;;;4.00;3.60;;;;;;;9.06;60.74;94954.50;5053045;28;20716;-83
2022/02/15 01:54:07;;;;;;;3.90;3.53;;;;;;;9.03;60.74;94948.00;5053471;28;20201;-83
2022/02/15 01:56:33;;;;;;;5.20;4.20;;;;;;;9.04;61.13;94953.91;5053831;28;20754;-83
2022/02/15 01:58:59;;;;;;;4.10;3.70;;;;;;;9.06;60.47;94946.81;5053296;28;20231;-83
2022/02/15 02:01:26;;;;;;;4.27;3.60;;;;;;;9.03;61.61;94945.41;5052482;28;20225;-84
2022/02/15 02:03:52;;;;;;;3.97;3.50;;;;;;;9.05;61.25;94950.34;5052690;28;20209;-83
2022/02/15 02:06:18;;;;;;;4.20;3.63;;;;;;;9.04;62.12;94952.16;5053563;28;20202;-83
2022/02/15 02:08:45;;;;;;;4.10;3.60;;;;;;;9.00;62.40;94956.84;5053237;28;20212;-82
2022/02/15 02:11:12;;;;;;;4.40;3.97;;;;;;;9.03;62.11;94960.81;5053185;28;20234;-83
2022/02/15 02:13:38;;;;;;;4.60;4.20;;;;;;;9.02;62.82;94958.44;5053152;28;20206;-83
2022/02/15 02:16:05;;;;;;;3.80;3.50;;;;;;;9.02;62.66;94956.66;5053224;28;20206;-83
2022/02/15 02:18:32;;;;;;;4.60;3.73;;;;;;;8.97;62.64;94957.19;5053064;28;20232;-83
2022/02/15 02:21:03;;;;;;;4.83;3.67;;;;;;;8.96;63.10;94955.59;5052845;28;20275;-81
2022/02/15 02:23:30;;;;;;;4.00;3.60;;;;;;;8.94;63.17;94965.25;5053744;28;20202;-82
2022/02/15 02:25:57;;;;;;;4.20;3.80;;;;;;;8.86;64.18;94956.88;5053277;28;20301;-81
2022/02/15 02:28:23;;;;;;;4.00;3.60;;;;;;;8.82;64.50;94961.59;5053244;28;20657;-81
2022/02/15 02:30:50;;;;;;;3.37;3.07;;;;;;;8.83;63.51;94958.03;5052180;28;20720;-81
2022/02/15 02:33:16;;;;;;;3.70;3.40;;;;;;;8.83;64.18;94959.81;5052792;28;20288;-81
2022/02/15 02:35:43;;;;;;;4.87;3.47;;;;;;;8.73;65.61;94957.53;5052913;28;20205;-82
2022/02/15 02:38:11;;;;;;;3.57;2.90;;;;;;;8.72;65.52;94955.13;5052746;28;20225;-81
2022/02/15 02:40:37;;;;;;;3.50;3.20;;;;;;;8.73;65.63;94964.41;5051695;28;20221;-80
2022/02/15 02:43:03;;;;;;;5.17;3.10;;;;;;;8.69;65.26;94966.53;5052102;28;20683;-81
2022/02/15 02:45:30;;;;;;;3.30;3.00;;;;;;;8.69;66.18;94970.88;5052241;28;20201;-81
2022/02/15 02:47:56;;;;;;;3.43;3.13;;;;;;;8.68;66.02;94969.28;5052011;28;20205;-81
2022/02/15 02:50:25;;;;;;;3.97;3.57;;;;;;;8.63;67.16;94978.34;5052370;28;20253;-81
2022/02/15 02:52:52;;;;;;;3.57;3.20;;;;;;;8.56;67.52;94986.94;5051884;28;20248;-81
2022/02/15 02:55:20;;;;;;;4.43;3.27;;;;;;;8.55;67.49;94982.75;5052505;28;20201;-81
2022/02/15 02:57:47;;;;;;;3.80;3.40;;;;;;;8.48;68.58;94976.75;5052207;28;20635;-81
2022/02/15 03:00:16;;;;;;;3.17;2.87;;;;;;;8.51;68.25;94979.75;5051738;28;20228;-82
2022/02/15 03:02:42;;;;;;;3.37;3.07;;;;;;;8.52;68.45;94986.47;5051333;28;20233;-81
2022/02/15 03:05:09;;;;;;;3.77;3.47;;;;;;;8.51;68.37;94978.97;5051983;28;20232;-82
2022/02/15 03:07:36;;;;;;;3.60;3.20;;;;;;;8.57;68.11;94983.38;5052026;28;20197;-82
2022/02/15 03:10:03;;;;;;;3.60;3.30;;;;;;;8.48;68.65;94987.81;5052072;28;20588;-81
2022/02/15 03:12:31;;;;;;;4.07;2.90;;;;;;;8.45;68.94;94995.88;5055316;28;20237;-82
2022/02/15 03:14:57;;;;;;;3.63;3.27;;;;;;;8.37;69.37;94997.72;5055922;28;20202;-81
2022/02/15 03:17:23;;;;;;;3.03;2.73;;;;;;;8.40;69.31;95005.88;5055104;28;20221;-81
2022/02/15 03:19:51;;;;;;;3.63;3.00;;;;;;;8.34;69.72;95001.44;5055921;28;20226;-80
2022/02/15 03:22:18;;;;;;;3.07;2.77;;;;;;;8.43;68.91;95000.38;5055249;28;20580;-81
2022/02/15 03:24:45;;;;;;;4.43;2.93;;;;;;;8.42;70.07;95008.25;5061395;28;20210;-82
2022/02/15 03:27:12;;;;;;;3.63;2.73;;;;;;;8.29;70.51;95019.88;5059086;28;20198;-82
2022/02/15 03:29:39;;;;;;;2.93;2.67;;;;;;;8.20;70.34;95018.38;5056442;28;20209;-81
2022/02/15 03:32:07;;;;;;;3.23;2.60;;;;;;;8.19;71.08;95024.50;5056414;28;20294;-82
2022/02/15 03:34:33;;;;;;;2.40;2.10;;;;;;;8.16;71.83;95024.81;5056716;28;20617;-82
2022/02/15 03:36:59;;;;;;;2.73;2.40;;;;;;;8.15;71.99;95025.00;5056135;28;20237;-82
2022/02/15 03:39:26;;;;;;;2.67;2.47;;;;;;;7.98;73.13;95030.28;5056279;28;20198;-82
2022/02/15 03:44:36;;;;;;;2.77;2.50;;;;;;;8.01;73.93;95041.16;5056020;28;20200;-82
2022/02/15 03:47:05;;;;;;;2.40;2.20;;;;;;;8.08;73.28;95030.03;5056037;28;20622;-81
2022/02/15 03:49:31;;;;;;;3.07;2.27;;;;;;;7.93;75.03;95042.81;5055581;28;20193;-81
2022/02/15 03:51:58;;;;;;;2.93;2.57;;;;;;;7.92;74.52;95043.00;5055332;28;20229;-82
2022/02/15 03:54:24;;;;;;;2.57;2.37;;;;;;;7.87;75.50;95040.16;5055588;28;20206;-81
2022/02/15 03:56:50;;;;;;;2.33;2.13;;;;;;;7.82;76.41;95033.00;5055174;28;20279;-82
2022/02/15 03:59:17;;;;;;;2.60;2.20;;;;;;;7.92;75.31;95040.44;5056016;28;20206;-82
2022/02/15 04:01:44;;;;;;;4.20;2.60;;;;;;;7.84;76.30;95038.75;5054731;28;20259;-81
2022/02/15 04:04:11;;;;;;;3.00;2.70;;;;;;;7.80;76.41;95042.63;5055397;28;20201;-82
2022/02/15 04:06:38;;;;;;;2.73;2.43;;;;;;;7.71;76.98;95045.41;5055921;28;20237;-81
2022/02/15 04:09:05;;;;;;;3.03;2.47;;;;;;;7.67;77.38;95044.97;5055525;28;20202;-81
2022/02/15 04:11:31;;;;;;;3.97;2.77;;;;;;;7.62;77.87;95050.59;5055589;28;20237;-82
2022/02/15 04:13:58;;;;;;;4.03;2.60;;;;;;;7.55;78.22;95047.13;5054898;28;20202;-82
2022/02/15 04:16:25;;;;;;;2.77;2.43;;;;;;;7.56;78.19;95045.34;5054965;28;20301;-81
2022/02/15 04:18:52;;;;;;;2.70;2.30;;;;;;;7.65;77.82;95052.03;5054379;28;20222;-80
2022/02/15 04:21:23;;;;;;;3.07;2.50;;;;;;;7.60;77.93;95055.09;5054520;28;20280;-81
2022/02/15 04:23:51;;;;;;;3.13;2.67;;;;;;;7.66;77.71;95058.75;5052834;28;20208;-81
2022/02/15 04:26:17;;;;;;;3.43;2.57;;;;;;;7.74;77.12;95055.31;5054531;28;20244;-80
2022/02/15 04:28:44;;;;;;;3.90;2.50;;;;;;;7.68;77.41;95067.06;5054435;28;20568;-80
2022/02/15 04:31:10;;;;;;;3.13;2.70;;;;;;;7.54;78.23;95078.81;5054312;28;20233;-81
2022/02/15 04:33:37;;;;;;;3.67;2.70;;;;;;;7.59;77.84;95070.63;5054002;28;20208;-82
2022/02/15 04:36:04;;;;;;;2.73;2.50;;;;;;;7.67;77.94;95069.78;5054606;28;20206;-81
2022/02/15 04:38:32;;;;;;;3.27;2.20;;;;;;;7.54;78.40;95076.25;5054461;28;20229;-82
2022/02/15 04:40:59;;;;;;;2.67;2.30;;;;;;;7.45;79.33;95079.06;5054920;28;20363;-82
2022/02/15 04:43:26;;;;;;;2.73;2.10;;;;;;;7.30;79.77;95070.50;5054225;28;20210;-81
2022/02/15 04:45:52;;;;;;;3.37;2.47;;;;;;;7.38;79.27;95073.81;5054331;28;20220;-81
2022/02/15 04:48:19;;;;;;;2.83;2.40;;;;;;;7.37;80.36;95073.97;5054550;28;20204;-82
2022/02/15 04:50:45;;;;;;;2.77;2.57;;;;;;;7.36;80.19;95085.19;5053245;28;20221;-81
2022/02/15 04:53:12;;;;;;;2.50;2.13;;;;;;;7.33;80.43;95078.63;5053834;28;20201;-81
2022/02/15 04:55:40;;;;;;;2.30;2.10;;;;;;;7.28;81.03;95079.16;5053955;28;20201;-82
2022/02/15 04:58:07;;;;;;;2.20;2.00;;;;;;;7.32;80.86;95083.91;5054162;28;20248;-81
2022/02/15 05:00:33;;;;;;;4.63;2.40;;;;;;;7.38;80.10;95091.72;5053251;28;20286;-82
2022/02/15 05:03:00;;;;;;;2.37;2.17;;;;;;;7.33;81.43;95094.00;5053085;28;20225;-81
2022/02/15 05:05:26;;;;;;;3.70;2.30;;;;;;;7.29;81.04;95090.19;5052983;28;20643;-80
2022/02/15 05:07:52;;;;;;;2.43;2.23;;;;;;;7.46;79.27;95091.69;5054084;28;20201;-81
2022/02/15 05:10:19;;;;;;;2.87;2.27;;;;;;;7.40;80.68;95094.13;5054089;28;20224;-82
2022/02/15 05:12:47;;;;;;;3.77;2.03;;;;;;;7.37;80.36;95090.13;5053254;28;20233;-82
2022/02/15 05:15:13;;;;;;;1.90;1.80;;;;;;;7.39;80.73;95101.00;5052947;28;20202;-82
2022/02/15 05:17:44;;;;;;;2.40;2.10;;;;;;;7.37;80.63;95095.25;5053279;28;20248;-81
2022/02/15 05:20:11;;;;;;;2.20;1.90;;;;;;;7.22;82.12;95097.75;5053716;28;20830;-81
2022/02/15 05:22:38;;;;;;;2.13;1.90;;;;;;;7.25;81.87;95094.06;5053701;28;20233;-80
2022/02/15 05:25:06;;;;;;;2.23;1.70;;;;;;;7.31;81.37;95095.16;5053479;28;20576;-81
2022/02/15 05:27:32;;;;;;;3.47;1.87;;;;;;;7.23;82.13;95108.78;5053888;28;20206;-81
2022/02/15 05:30:00;;;;;;;2.53;2.00;;;;;;;7.30;81.38;95101.25;5053473;28;20225;-81
2022/02/15 05:32:28;;;;;;;2.07;1.87;;;;;;;7.27;82.11;95099.81;5052691;28;20228;-82
2022/02/15 05:34:54;;;;;;;2.27;1.73;;;;;;;7.20;82.25;95106.56;5052772;28;20780;-81
2022/02/15 05:37:21;;;;;;;3.00;2.70;;;;;;;7.12;82.85;95115.06;5053319;28;20205;-81
2022/02/15 05:39:47;;;;;;;2.80;1.80;;;;;;;7.03;83.19;95113.50;5052844;28;20197;-82
2022/02/15 05:42:14;;;;;;;2.43;1.80;;;;;;;7.03;83.09;95110.94;5052815;28;20236;-82
2022/02/15 05:44:40;;;;;;;2.17;1.97;;;;;;;7.19;81.82;95113.44;5060123;28;20205;-81
2022/02/15 05:47:08;;;;;;;1.97;1.73;;;;;;;7.20;82.49;95116.78;5057838;28;20692;-81
2022/02/15 05:50:49;;;;;;;4.13;1.97;;;;;;;7.25;81.80;95124.78;5049616;28;20779;-81
2022/02/15 05:52:22;;;;;;;2.23;1.77;;;;;;;7.16;82.01;95124.00;5049861;28;20256;-82
2022/02/15 05:54:48;;;;;;;2.77;1.67;;;;;;;6.94;83.41;95117.84;5050890;28;20210;-82
2022/02/15 05:57:15;;;;;;;1.97;1.70;;;;;;;6.85;84.15;95123.16;5054225;28;20212;-81
2022/02/15 05:59:41;;;;;;;2.27;1.90;;;;;;;6.89;83.58;95121.88;5053458;28;20291;-82
2022/02/15 06:02:09;;;;;;;3.80;2.83;;;;;;;6.89;83.51;95132.91;5053823;28;20232;-83
2022/02/15 06:04:36;;;;;;;2.60;2.03;;;;;;;6.80;83.70;95122.84;5053186;28;20217;-81
2022/02/15 06:07:04;;;;;;;2.00;1.80;;;;;;;6.60;85.43;95135.22;5053725;28;20202;-83
2022/02/15 06:09:31;;;;;;;2.53;2.03;;;;;;;6.67;85.51;95137.94;5052592;28;20202;-81
2022/02/15 06:11:57;;;;;;;2.73;2.10;;;;;;;6.81;84.84;95130.38;5052293;28;20225;-83
2022/02/15 06:14:23;;;;;;;2.30;2.10;;;;;;;6.86;83.68;95138.34;5053092;28;20208;-81
2022/02/15 06:16:50;;;;;;;1.90;1.77;;;;;;;6.91;83.47;95141.22;5051708;28;20676;-82
2022/02/15 06:19:18;;;;;;;2.67;2.30;;;;;;;6.93;83.13;95141.03;5053241;28;20225;-83
2022/02/15 06:21:45;;;;;;;3.00;2.00;;;;;;;6.99;82.85;95139.59;5052794;28;20252;-81
2022/02/15 06:24:11;;;;;;;2.67;2.07;;;;;;;7.05;82.17;95139.72;5053785;28;20204;-81
2022/02/15 06:26:37;;;;;;;2.57;2.10;;;;;;;7.08;82.11;95141.16;5052169;28;20221;-81
2022/02/15 06:29:04;;;;;;;2.97;2.23;;;;;;;6.98;82.12;95138.78;5053230;28;20208;-81
2022/02/15 06:31:30;;;;;;;3.37;2.20;;;;;;;6.84;82.97;95142.03;5052477;28;20236;-81
2022/02/15 06:33:57;;;;;;;2.17;1.97;;;;;;;6.87;83.16;95149.38;5052488;28;20201;-82
2022/02/15 06:36:24;;;;;;;4.93;2.33;;;;;;;6.90;83.15;95151.63;5053847;28;20201;-82
2022/02/15 06:38:51;;;;;;;2.53;1.83;;;;;;;6.84;83.06;95145.41;5052251;28;20234;-82
2022/02/15 06:41:17;;;;;;;2.87;2.00;;;;;;;6.76;83.94;95150.53;5052773;28;20718;-83
2022/02/15 06:43:44;;;;;;;2.50;2.30;;;;;;;6.86;83.45;95161.38;5052296;28;20209;-82
2022/02/15 06:46:10;;;;;;;2.90;2.50;;;;;;;6.92;82.67;95165.06;5053014;28;20753;-81
2022/02/15 06:48:36;;;;;;;3.43;2.30;;;;;;;6.88;83.14;95174.03;5056429;28;20227;-82
2022/02/15 06:51:03;;;;;;;4.17;2.80;;;;;;;6.77;83.17;95171.78;5055036;28;20240;-82
2022/02/15 06:53:32;;;;;;;3.03;2.37;;;;;;;6.67;84.67;95179.66;5047680;28;20241;-81
2022/02/15 06:55:59;;;;;;;3.07;1.93;;;;;;;6.71;84.49;95186.03;5042786;28;20580;-82
2022/02/15 06:58:25;;;;;;;3.07;2.20;;;;;;;6.64;84.77;95187.66;5056699;28;20604;-81
2022/02/15 07:00:52;;;;;;;2.27;2.00;;;;;;;6.66;84.59;95184.94;5044303;28;20226;-82
2022/02/15 07:03:18;;;;;;;4.13;2.67;;;;;;;6.75;83.45;95187.28;5040000;28;20207;-82
2022/02/15 07:05:45;;;;;;;3.90;2.73;;;;;;;6.82;84.07;95192.56;5055444;28;20255;-81
2022/02/15 07:08:11;;;;;;;3.10;2.73;;;;;;;6.92;82.90;95195.75;5056223;28;20204;-82
2022/02/15 07:10:39;;;;;;;4.67;2.47;;;;;;;7.01;82.79;95205.00;5055738;28;20229;-81
2022/02/15 07:13:06;;;;;;;4.17;2.20;;;;;;;7.13;81.66;95202.88;5056185;28;20239;-82
2022/02/15 07:15:32;;;;;;;2.50;2.30;;;;;;;7.12;81.91;95202.09;5055767;28;20669;-81
2022/02/15 07:17:58;;;;;;;8.57;2.63;;;;;;;7.11;81.53;95205.63;5056041;28;20201;-81
2022/02/15 07:20:25;;;;;;;4.83;2.37;;;;;;;7.15;81.80;95206.09;5056218;28;20626;-80
2022/02/15 07:22:51;;;;;;;3.23;2.20;;;;;;;7.08;81.16;95213.63;5055264;28;20242;-81
2022/02/15 07:25:18;;;;;;;2.47;2.27;;;;;;;7.09;81.71;95210.13;5056114;28;20346;-82
2022/02/15 07:27:45;;;;;;;2.97;2.50;;;;;;;7.06;81.91;95220.69;5056174;28;20255;-81
2022/02/15 07:30:12;;;;;;;4.73;2.30;;;;;;;7.11;81.84;95215.88;5056908;28;20578;-81
2022/02/15 07:32:39;;;;;;;5.77;2.57;;;;;;;7.18;81.20;95221.13;5059329;28;20256;-82
2022/02/15 07:35:05;;;;;;;3.70;2.30;;;;;;;7.22;80.86;95218.06;5057064;28;20208;-81
2022/02/15 07:37:32;;;;;;;5.40;2.60;;;;;;;7.32;80.21;95222.19;5056210;28;20209;-82
2022/02/15 07:39:58;;;;;;;4.27;2.50;;;;;;;7.30;80.24;95224.16;5057648;28;20225;-82
2022/02/15 07:42:25;;;;;;;6.23;2.40;;;;;;;7.27;80.14;95228.63;5056447;28;20252;-82
2022/02/15 07:44:53;;;;;;;4.03;2.40;;;;;;;7.25;80.27;95228.00;5056444;28;20201;-82
2022/02/15 07:47:19;;;;;;;4.63;2.73;;;;;;;7.24;80.60;95228.16;5056735;28;20227;-82
2022/02/15 07:49:46;;;;;;;5.00;2.70;;;;;;;7.24;80.62;95239.19;5056206;28;20201;-81
2022/02/15 07:52:14;;;;;;;3.77;2.37;;;;;;;7.26;81.10;95239.03;5056808;28;20230;-81
2022/02/15 07:54:40;;;;;;;3.63;2.40;;;;;;;7.27;80.98;95238.06;5056642;28;20212;-82
2022/02/15 07:57:07;;;;;;;3.43;2.90;;;;;;;7.39;79.79;95236.75;5056343;28;20213;-83
2022/02/15 07:59:33;;;;;;;3.57;2.47;;;;;;;7.46;79.57;95232.56;5056307;28;20222;-81
2022/02/15 08:02:01;;;;;;;3.53;2.50;;;;;;;7.46;80.05;95235.13;5055434;28;20229;-82
2022/02/15 08:04:28;;;;;;;3.30;2.67;;;;;;;7.48;79.25;95243.44;5055698;28;20214;-82
2022/02/15 08:06:54;;;;;;;4.20;3.17;;;;;;;7.50;79.38;95241.53;5059632;28;20219;-83
2022/02/15 08:09:22;;;;;;;4.17;2.80;;;;;;;7.41;79.90;95245.06;5061438;28;20231;-81
2022/02/15 08:11:54;;;;;;;4.47;3.20;;;;;;;7.31;79.79;95235.97;5056198;28;20233;-82
2022/02/15 08:14:22;;;;;;;3.80;3.50;;;;;;;7.26;80.77;95242.38;5056736;28;20205;-82
2022/02/15 08:16:48;;;;;;;6.40;3.43;;;;;;;7.37;80.58;95237.88;5056064;28;20232;-82
2022/02/15 08:19:16;;;;;;;4.17;3.40;;;;;;;7.30;80.73;95239.50;5056519;28;20257;-81
2022/02/15 08:21:42;;;;;;;3.77;3.37;;;;;;;7.24;80.60;95233.28;5055355;28;20233;-81
2022/02/15 08:24:09;;;;;;;3.73;3.33;;;;;;;7.29;80.45;95243.81;5057111;28;20209;-82
2022/02/15 08:26:35;;;;;;;4.00;3.60;;;;;;;7.21;80.43;95252.31;5056616;28;20220;-83
2022/02/15 08:29:02;;;;;;;4.47;3.53;;;;;;;7.31;80.67;95248.78;5055815;28;20718;-82
2022/02/15 08:31:28;;;;;;;4.10;3.50;;;;;;;7.27;80.50;95241.44;5055440;28;20290;-82
2022/02/15 08:33:55;;;;;;;3.80;3.40;;;;;;;7.34;80.70;95249.22;5056530;28;20227;-82
2022/02/15 08:36:22;;;;;;;7.27;3.13;;;;;;;7.33;80.51;95252.75;5055972;28;20201;-81
2022/02/15 08:38:49;;;;;;;5.20;3.20;;;;;;;7.38;79.51;95259.94;5055926;28;20225;-82
2022/02/15 08:41:15;;;;;;;3.37;3.07;;;;;;;7.39;80.21;95267.47;5055093;28;20233;-82
2022/02/15 08:43:42;;;;;;;4.80;3.30;;;;;;;7.41;80.42;95255.31;5055667;28;20205;-83
2022/02/15 08:46:08;;;;;;;5.07;3.10;;;;;;;7.51;80.09;95262.78;5055544;28;20279;-81
2022/02/15 08:48:35;;;;;;;4.50;3.10;;;;;;;7.52;79.57;95274.63;5055366;28;20704;-82
2022/02/15 08:51:01;;;;;;;3.97;3.30;;;;;;;7.55;80.14;95275.09;5055814;28;20229;-82
2022/02/15 08:53:29;;;;;;;6.40;3.40;;;;;;;7.54;79.88;95282.94;5055688;28;20844;-82
2022/02/15 08:55:55;;;;;;;3.50;3.10;;;;;;;7.64;79.94;95283.56;5055407;28;20229;-82
2022/02/15 08:58:22;;;;;;;2.83;2.60;;;;;;;7.63;79.33;95282.78;5055687;28;20703;-82
2022/02/15 09:00:48;;;;;;;2.87;2.67;;;;;;;7.57;78.92;95285.19;5054479;28;20229;-82
2022/02/15 09:03:15;;;;;;;5.17;2.90;;;;;;;7.66;79.21;95278.28;5055493;28;20209;-80
2022/02/15 09:05:42;;;;;;;3.87;2.50;;;;;;;7.74;78.94;95286.72;5055581;28;20201;-82
2022/02/15 09:08:08;;;;;;;3.83;2.53;;;;;;;7.79;77.93;95281.09;5055086;28;20692;-82
2022/02/15 09:10:38;;;;;;;4.90;2.40;;;;;;;7.75;78.22;95287.53;5054539;28;20224;-82
2022/02/15 09:13:05;;;;;;;6.97;2.40;;;;;;;7.69;77.83;95283.88;5074449;28;20281;-81
2022/02/15 09:15:31;;;;;;;4.40;2.50;;;;;;;7.76;78.04;95286.56;5074709;28;20205;-82
2022/02/15 09:17:58;;;;;;;6.67;2.13;;;;;;;7.79;77.83;95288.78;5074658;28;20596;-82
2022/02/15 09:20:24;;;;;;;4.67;2.10;;;;;;;7.76;77.81;95289.91;5075601;28;20691;-83
2022/02/15 09:22:51;;;;;;;2.70;1.93;;;;;;;7.63;77.97;95281.97;5074904;28;20228;-83
2022/02/15 09:25:17;;;;;;;2.20;1.90;;;;;;;7.58;78.65;95279.09;5074247;28;20597;-82
2022/02/15 09:27:45;;;;;;;2.13;1.80;;;;;;;7.69;77.88;95283.09;5074281;28;20200;-81
2022/02/15 09:30:11;;;;;;;1.70;1.60;;;;;;;7.76;78.06;95289.13;5074205;28;20239;-81
2022/02/15 09:32:38;;;;;;;2.00;1.70;;;;;;;7.84;77.79;95284.78;5073568;28;20228;-81
2022/02/15 09:35:06;;;;;;;2.00;1.80;;;;;;;7.97;77.38;95295.28;5073409;28;20200;-81
2022/02/15 09:37:32;;;;;;;1.80;1.60;;;;;;;7.92;77.09;95299.31;5073573;28;20207;-82
2022/02/15 09:40:00;;;;;;;13.93;3.33;;;;;;;7.99;76.68;95300.25;5073937;28;20220;-82
2022/02/15 09:42:26;;;;;;;6.10;2.10;;;;;;;7.97;77.21;95297.84;5074120;28;20228;-82
2022/02/15 09:44:54;;;;;;;1.77;1.67;;;;;;;7.87;77.62;95289.56;5074287;28;20685;-82
2022/02/15 09:47:24;;;;;;;2.03;1.60;;;;;;;7.84;77.74;95295.03;5074006;28;20212;-82
2022/02/15 09:49:51;;;;;;;2.87;1.80;;;;;;;7.70;78.80;95300.81;5073947;28;20224;-82
2022/02/15 09:52:19;;;;;;;3.37;1.90;;;;;;;7.68;79.17;95297.66;5073398;28;20228;-82
2022/02/15 09:54:46;;;;;;;2.07;1.67;;;;;;;7.75;78.94;95297.78;5074158;28;20588;-82
2022/02/15 09:57:14;;;;;;;2.37;1.83;;;;;;;7.81;79.10;95309.94;5073228;28;20254;-82
2022/02/15 09:59:40;;;;;;;2.60;1.77;;;;;;;7.64;79.85;95322.00;5074349;28;20221;-82
2022/02/15 10:02:10;;;;;;;2.20;2.00;;;;;;;7.59;80.26;95319.13;5073876;28;20228;-81
2022/02/15 10:04:37;;;;;;;5.83;2.37;;;;;;;7.65;79.89;95321.03;5073480;28;20710;-81
2022/02/15 10:07:05;;;;;;;9.30;2.40;;;;;;;7.66;80.44;95320.09;5073702;28;20253;-82
2022/02/15 10:09:32;;;;;;;3.53;1.77;;;;;;;7.75;80.01;95323.41;5073705;28;20229;-82
2022/02/15 10:12:04;;;;;;;3.10;1.80;;;;;;;7.72;80.90;95328.84;5073697;28;20237;-81
2022/02/15 10:14:31;;;;;;;1.80;1.70;;;;;;;7.75;80.18;95329.31;5073770;28;20224;-81
2022/02/15 10:16:58;;;;;;;2.90;1.87;;;;;;;7.87;80.83;95328.03;5073425;28;20250;-81
2022/02/15 10:19:27;;;;;;;3.43;2.03;;;;;;;7.99;80.33;95328.44;5073351;28;20217;-82
2022/02/15 10:21:55;;;;;;;4.50;2.20;;;;;;;8.11;80.33;95328.88;5071912;28;20282;-81
2022/02/15 10:24:22;;;;;;;2.10;1.70;;;;;;;8.14;79.45;95328.53;5073702;28;20200;-82
2022/02/15 10:26:56;;;;;;;2.60;1.80;;;;;;;8.08;80.50;95337.69;5073851;28;20205;-82
2022/02/15 10:29:24;;;;;;;1.90;1.60;;;;;;;7.96;80.42;95331.34;5077474;28;20201;-81
2022/02/15 10:31:55;;;;;;;2.53;1.70;;;;;;;7.95;80.38;95332.28;5091009;28;20237;-81
2022/02/15 10:34:21;;;;;;;1.90;1.50;;;;;;;7.97;79.30;95331.16;5076784;28;20262;-82
2022/02/15 10:36:56;;;;;;;3.37;1.43;;;;;;;7.92;79.19;95332.63;5075244;28;20209;-81
2022/02/15 10:39:22;;;;;;;5.80;1.70;;;;;;;8.03;78.96;95334.03;5075279;28;20219;-82
2022/02/15 10:41:49;;;;;;;1.30;1.20;;;;;;;7.95;78.58;95337.44;5075060;28;20232;-82
2022/02/15 10:44:16;;;;;;;6.30;1.57;;;;;;;8.02;78.75;95335.00;5074247;28;20215;-82
2022/02/15 10:46:42;;;;;;;1.87;1.53;;;;;;;7.97;78.38;95336.28;5073535;28;20300;-82
2022/02/15 10:49:10;;;;;;;1.50;1.40;;;;;;;8.02;78.62;95333.25;5073706;28;20208;-81
2022/02/15 10:51:37;;;;;;;1.40;1.13;;;;;;;7.94;78.57;95336.63;5073633;28;20254;-82
2022/02/15 10:54:06;;;;;;;1.40;1.30;;;;;;;7.83;79.11;95346.44;5072883;28;20737;-81
2022/02/15 10:56:33;;;;;;;1.83;1.40;;;;;;;7.84;79.53;95342.94;5073045;28;20231;-82
2022/02/15 10:59:01;;;;;;;2.83;1.30;;;;;;;7.89;79.55;95338.88;5073681;28;20197;-81
2022/02/15 11:01:29;;;;;;;3.17;1.47;;;;;;;7.95;78.35;95335.66;5072998;28;20252;-81
2022/02/15 11:03:55;;;;;;;1.87;1.50;;;;;;;8.00;78.30;95336.94;5073302;28;20205;-82
2022/02/15 11:06:22;;;;;;;1.83;1.40;;;;;;;7.90;78.84;95339.69;5073050;28;20741;-81
2022/02/15 11:08:53;;;;;;;1.60;1.50;;;;;;;7.95;78.19;95327.97;5072427;28;20235;-81
2022/02/15 11:11:24;;;;;;;1.70;1.57;;;;;;;8.00;77.40;95331.81;5073311;28;20270;-82
2022/02/15 11:13:54;;;;;;;1.60;1.50;;;;;;;8.00;77.43;95332.59;5073631;28;20197;-82
2022/02/15 11:16:24;;;;;;;1.87;1.60;;;;;;;7.89;77.90;95330.38;5072907;28;20212;-81
2022/02/15 11:18:51;;;;;;;1.60;1.50;;;;;;;8.03;77.90;95332.28;5072396;28;20259;-81
2022/02/15 11:21:23;;;;;;;2.93;1.90;;;;;;;8.10;77.24;95340.88;5072940;28;20232;-82
2022/02/15 11:23:58;;;;;;;2.13;1.83;;;;;;;8.24;77.62;95334.28;5073306;28;20205;-82
2022/02/15 11:26:33;;;;;;;1.90;1.77;;;;;;;8.20;77.06;95333.81;5072987;28;20205;-81
2022/02/15 11:29:00;;;;;;;2.20;2.00;;;;;;;8.22;77.47;95334.44;5073660;28;20276;-81
2022/02/15 11:31:28;;;;;;;3.00;2.13;;;;;;;8.22;77.11;95341.31;5072443;28;20282;-82
2022/02/15 11:33:56;;;;;;;2.00;1.80;;;;;;;8.15;77.22;95341.19;5075833;28;20205;-81
2022/02/15 11:36:23;;;;;;;2.10;1.90;;;;;;;8.19;76.96;95339.09;5076090;28;20611;-81
2022/02/15 11:38:57;;;;;;;2.70;2.10;;;;;;;8.16;77.39;95340.22;5075984;28;20200;-82
2022/02/15 11:41:26;;;;;;;3.40;2.20;;;;;;;8.12;77.68;95333.81;5075134;28;20233;-82
2022/02/15 11:43:56;;;;;;;2.10;1.90;;;;;;;8.13;78.17;95338.00;5076273;28;20201;-82